Wilseyville, California
Current Conditions -  °F | °C
As of 5:15 AM on Thursday 30 Oct 2014 (Local Time) from KO22 Reporting Station
Clear Clear  
Wind Chill: 46°   Ceiling: Unl
Heat Index: 46°   Visibility: 10mi
Dew Point: 41°   Wind: 0mph
Humidity: 81%   Direction: NA
Pressure: 29.99"   Gusts: NA
Location:  38.38°N, 120.52°W
Report Text: KO22 301215Z AUTO 00000KT 10SM CLR 08/05 A2999 RMK AO1
Loading
Personal Weather Stations






























Interactive Weather Map New forecast layout! Learn more

10-Day Weather Forecast

Advertisements
Track Severe Weather on mobile